Time;durP1;ratioP1;P1;durP2;ratioP2;P2;SDS_P1;SDS_P2;PMS_P1;PMS_P2;Temp;Humidity;BMP_temperature;BMP_pressure;BME280_temperature;BME280_humidity;BME280_pressure;Samples;Min_cycle;Max_cycle;Signal;HPM_P1;HPM_P2
2022/07/06 00:02:03;;;;;;;4.97;0.70;;;15.00;99.90;;;;;;5049548;28;20442;-70
2022/07/06 00:04:31;;;;;;;3.50;0.55;;;15.20;99.90;;;;;;5049558;28;20405;-71
2022/07/06 00:06:58;;;;;;;4.20;0.60;;;15.30;99.90;;;;;;5049370;28;20230;-71
2022/07/06 00:09:25;;;;;;;3.80;0.50;;;15.50;99.90;;;;;;5045917;28;20032;-73
2022/07/06 00:11:53;;;;;;;2.92;0.45;;;15.50;99.90;;;;;;5035289;28;20052;-72
2022/07/06 00:14:20;;;;;;;3.35;1.70;;;15.40;99.90;;;;;;5041057;28;20094;-74
2022/07/06 00:16:48;;;;;;;4.95;0.45;;;15.50;99.90;;;;;;5029527;28;20032;-72
2022/07/06 00:19:15;;;;;;;6.03;0.88;;;15.50;99.90;;;;;;5037057;28;20108;-72
2022/07/06 00:21:42;;;;;;;5.47;0.50;;;15.50;99.90;;;;;;5037076;28;20090;-73
2022/07/06 00:24:10;;;;;;;1.98;0.50;;;15.40;99.90;;;;;;5035688;28;20021;-75
2022/07/06 00:26:37;;;;;;;2.42;0.55;;;15.40;99.90;;;;;;5043150;28;20061;-75
2022/07/06 00:29:04;;;;;;;3.55;1.05;;;15.40;99.90;;;;;;5059707;28;20112;-75
2022/07/06 00:31:32;;;;;;;3.63;0.70;;;15.40;99.90;;;;;;5040071;28;20063;-76
2022/07/06 00:33:59;;;;;;;5.85;0.52;;;15.50;99.90;;;;;;5054160;28;20041;-77
2022/07/06 00:36:27;;;;;;;3.95;0.60;;;15.40;99.90;;;;;;5042285;28;20474;-77
2022/07/06 00:38:54;;;;;;;4.85;0.70;;;15.40;99.90;;;;;;5031367;28;20129;-72
2022/07/06 00:41:22;;;;;;;2.20;1.50;;;15.40;99.90;;;;;;5042499;28;20052;-73
2022/07/06 00:43:51;;;;;;;2.15;0.70;;;15.40;99.90;;;;;;5052469;28;20068;-74
2022/07/06 00:46:19;;;;;;;3.58;0.50;;;15.40;99.90;;;;;;5035492;28;20481;-74
2022/07/06 00:48:46;;;;;;;1.90;0.50;;;15.40;99.90;;;;;;5031561;28;20041;-75
2022/07/06 00:51:15;;;;;;;1.13;0.50;;;15.40;99.90;;;;;;5042499;28;20044;-71
2022/07/06 00:53:43;;;;;;;4.13;0.73;;;15.40;99.90;;;;;;5031596;28;20105;-74
2022/07/06 00:56:11;;;;;;;1.42;0.40;;;15.50;99.90;;;;;;5027958;28;20052;-75
2022/07/06 00:58:38;;;;;;;4.40;0.77;;;15.60;99.90;;;;;;5030440;28;20028;-72
2022/07/06 01:01:06;;;;;;;1.88;0.45;;;15.70;99.90;;;;;;5030081;28;20475;-72
2022/07/06 01:03:33;;;;;;;4.35;0.63;;;15.80;99.90;;;;;;5028453;28;20048;-71
2022/07/06 01:06:01;;;;;;;3.75;0.82;;;15.90;99.90;;;;;;5029909;28;20033;-74
2022/07/06 01:08:29;;;;;;;5.63;0.82;;;15.90;99.90;;;;;;5033011;28;20480;-75
2022/07/06 01:10:56;;;;;;;2.35;0.60;;;15.90;99.90;;;;;;5029304;28;20038;-74
2022/07/06 01:13:24;;;;;;;2.13;0.50;;;15.90;99.90;;;;;;5029747;28;20115;-71
2022/07/06 01:15:51;;;;;;;5.05;0.52;;;15.80;99.90;;;;;;5032454;28;20037;-72
2022/07/06 01:18:19;;;;;;;5.20;0.90;;;15.70;99.90;;;;;;5030760;28;20061;-75
2022/07/06 01:20:47;;;;;;;4.93;1.48;;;15.60;99.90;;;;;;5052698;28;20025;-72
2022/07/06 01:23:14;;;;;;;4.28;0.70;;;15.50;99.90;;;;;;5040340;28;20037;-73
2022/07/06 01:25:41;;;;;;;3.42;0.70;;;15.50;99.90;;;;;;5040048;28;20021;-73
2022/07/06 01:28:09;;;;;;;8.43;0.80;;;15.50;99.90;;;;;;5032774;28;20025;-75
2022/07/06 01:30:36;;;;;;;4.57;0.50;;;15.50;99.90;;;;;;5040112;28;20037;-73
2022/07/06 01:33:03;;;;;;;4.13;0.50;;;15.50;99.90;;;;;;5034951;28;20502;-76
2022/07/06 01:35:34;;;;;;;3.72;0.32;;;15.60;99.90;;;;;;5038897;28;20025;-76
2022/07/06 01:38:01;;;;;;;5.63;0.50;;;15.60;99.90;;;;;;5037665;28;20039;-76
2022/07/06 01:40:28;;;;;;;3.17;0.50;;;15.60;99.90;;;;;;5040517;28;20044;-73
2022/07/06 01:42:56;;;;;;;1.65;1.00;;;15.60;99.90;;;;;;5049507;28;20032;-75
2022/07/06 01:45:23;;;;;;;4.38;1.27;;;15.50;99.90;;;;;;5045235;28;20053;-77
2022/07/06 01:47:50;;;;;;;3.55;0.88;;;15.60;99.90;;;;;;5048059;28;20049;-73
2022/07/06 01:50:18;;;;;;;6.82;1.35;;;15.60;99.90;;;;;;5034055;28;20034;-74
2022/07/06 01:52:45;;;;;;;2.78;1.52;;;15.70;99.90;;;;;;5045770;28;20082;-75
2022/07/06 01:55:12;;;;;;;3.17;1.00;;;15.80;99.90;;;;;;5052688;28;20017;-75
2022/07/06 01:57:39;;;;;;;4.80;1.25;;;16.00;99.90;;;;;;5036002;28;20992;-74
2022/07/06 02:00:09;;;;;;;4.70;0.50;;;16.20;99.90;;;;;;5047566;28;20312;-74
2022/07/06 02:02:36;;;;;;;4.07;0.95;;;16.40;99.90;;;;;;5043204;28;20029;-75
2022/07/06 02:05:03;;;;;;;7.45;0.90;;;16.50;99.90;;;;;;5024040;28;20032;-73
2022/07/06 02:07:31;;;;;;;5.00;0.88;;;16.60;99.90;;;;;;5050189;28;20071;-76
2022/07/06 02:09:58;;;;;;;6.75;0.70;;;16.70;99.90;;;;;;5035464;28;20029;-74
2022/07/06 02:12:25;;;;;;;3.72;1.15;;;16.80;99.90;;;;;;5041642;28;20424;-74
2022/07/06 02:14:53;;;;;;;5.50;0.70;;;16.80;99.90;;;;;;5057234;28;20029;-75
2022/07/06 02:17:20;;;;;;;7.32;1.48;;;16.80;99.90;;;;;;5035406;28;20357;-78
2022/07/06 02:19:47;;;;;;;6.15;0.90;;;16.80;99.90;;;;;;5030647;28;20100;-76
2022/07/06 02:22:14;;;;;;;5.82;0.82;;;16.70;99.90;;;;;;5044537;28;20053;-76
2022/07/06 02:24:42;;;;;;;6.57;0.70;;;16.60;99.90;;;;;;5050550;28;20445;-76
2022/07/06 02:27:09;;;;;;;4.70;0.95;;;16.50;99.90;;;;;;5036850;28;20045;-76
2022/07/06 02:29:36;;;;;;;4.75;0.93;;;16.40;99.90;;;;;;5046765;28;20158;-76
2022/07/06 02:32:04;;;;;;;12.35;0.82;;;16.40;99.90;;;;;;5037407;28;20494;-77
2022/07/06 02:34:31;;;;;;;3.47;1.20;;;16.30;99.90;;;;;;5039302;28;20025;-77
2022/07/06 02:37:00;;;;;;;5.20;0.77;;;16.30;99.90;;;;;;5042525;28;20335;-76
2022/07/06 02:39:27;;;;;;;7.75;1.40;;;16.30;99.90;;;;;;5039181;28;20116;-76
2022/07/06 02:41:54;;;;;;;0.93;0.30;;;16.30;99.90;;;;;;5041941;28;20025;-77
2022/07/06 02:44:22;;;;;;;3.67;0.70;;;16.30;99.90;;;;;;5033714;28;20455;-75
2022/07/06 02:46:49;;;;;;;5.18;1.27;;;16.30;99.90;;;;;;5039285;28;20510;-77
2022/07/06 02:49:16;;;;;;;5.93;1.08;;;16.40;99.90;;;;;;5047249;28;20443;-76
2022/07/06 02:51:44;;;;;;;5.85;0.57;;;16.50;99.90;;;;;;5034099;28;20595;-76
2022/07/06 02:54:11;;;;;;;6.95;0.55;;;16.60;99.90;;;;;;5033207;28;20021;-76
2022/07/06 02:56:38;;;;;;;5.82;1.75;;;16.80;99.90;;;;;;5033475;28;20029;-75
2022/07/06 02:59:06;;;;;;;5.47;2.00;;;17.00;99.90;;;;;;5031927;28;20049;-76
2022/07/06 03:01:33;;;;;;;4.78;0.93;;;17.10;99.90;;;;;;5034948;28;20037;-75
2022/07/06 03:04:00;;;;;;;4.10;1.15;;;17.10;99.90;;;;;;5046349;28;22019;-75
2022/07/06 03:06:28;;;;;;;4.10;0.90;;;17.20;99.90;;;;;;5041140;28;20037;-76
2022/07/06 03:08:55;;;;;;;5.38;1.80;;;17.20;99.90;;;;;;5066190;28;20031;-75
2022/07/06 03:11:22;;;;;;;6.45;1.10;;;17.20;99.90;;;;;;5059896;28;20044;-75
2022/07/06 03:13:49;;;;;;;4.60;0.88;;;17.20;99.90;;;;;;5064078;28;20386;-75
2022/07/06 03:16:17;;;;;;;5.75;0.88;;;17.20;99.90;;;;;;5047888;28;20045;-73
2022/07/06 03:18:44;;;;;;;4.65;0.90;;;17.10;99.90;;;;;;5044452;28;20017;-76
2022/07/06 03:21:11;;;;;;;9.50;1.98;;;17.10;99.90;;;;;;5060960;28;20047;-76
2022/07/06 03:23:39;;;;;;;8.18;1.45;;;17.00;99.90;;;;;;5058290;28;20035;-75
2022/07/06 03:26:06;;;;;;;7.38;1.05;;;17.00;99.90;;;;;;5048046;28;20503;-75
2022/07/06 03:28:33;;;;;;;7.80;0.88;;;17.00;99.90;;;;;;5051037;28;20033;-75
2022/07/06 03:31:01;;;;;;;6.00;0.82;;;16.90;99.90;;;;;;5047566;28;20042;-76
2022/07/06 03:33:28;;;;;;;4.60;0.70;;;16.80;99.90;;;;;;5045676;28;20100;-75
2022/07/06 03:35:55;;;;;;;4.82;0.50;;;16.60;99.90;;;;;;5031469;28;20037;-74
2022/07/06 03:38:23;;;;;;;3.17;0.90;;;16.50;99.90;;;;;;5034591;28;20617;-75
2022/07/06 03:40:50;;;;;;;4.65;0.93;;;16.30;99.90;;;;;;5033851;28;20430;-76
2022/07/06 03:43:17;;;;;;;7.22;1.00;;;16.10;99.90;;;;;;5030864;28;20021;-75
2022/07/06 03:45:45;;;;;;;5.90;0.73;;;16.00;99.90;;;;;;5039049;28;20151;-76
2022/07/06 03:48:12;;;;;;;9.80;1.35;;;16.00;99.90;;;;;;5032488;28;20040;-73
2022/07/06 03:50:39;;;;;;;6.05;1.17;;;15.90;99.90;;;;;;5037147;28;20069;-78
2022/07/06 03:53:07;;;;;;;4.30;0.55;;;16.00;99.90;;;;;;5033586;28;20136;-75
2022/07/06 03:55:37;;;;;;;5.10;1.77;;;16.00;99.90;;;;;;5035553;28;20386;-76
2022/07/06 03:58:05;;;;;;;6.60;1.20;;;16.00;99.90;;;;;;5043752;28;20024;-76
2022/07/06 04:00:34;;;;;;;3.88;0.63;;;16.10;99.90;;;;;;5045312;28;20029;-75
2022/07/06 04:03:01;;;;;;;5.32;1.33;;;16.10;99.90;;;;;;5062840;28;20055;-78
2022/07/06 04:05:29;;;;;;;4.55;0.85;;;16.30;99.90;;;;;;5029590;28;20033;-75
2022/07/06 04:07:56;;;;;;;4.55;1.58;;;16.30;99.90;;;;;;5048981;28;20021;-77
2022/07/06 04:10:23;;;;;;;7.40;2.45;;;16.20;99.90;;;;;;5041157;28;20045;-76
2022/07/06 04:12:51;;;;;;;6.00;1.20;;;16.20;99.90;;;;;;5045830;28;20091;-75
2022/07/06 04:15:18;;;;;;;3.25;1.15;;;16.10;99.90;;;;;;5048813;28;20029;-75
2022/07/06 04:17:55;;;;;;;5.82;1.33;;;16.10;99.90;;;;;;5062535;28;20036;-75
2022/07/06 04:20:25;;;;;;;9.35;2.65;;;16.20;99.90;;;;;;5051297;28;20043;-75
2022/07/06 04:22:53;;;;;;;7.00;1.70;;;16.10;99.90;;;;;;5067098;28;20036;-77
2022/07/06 04:25:20;;;;;;;4.97;2.08;;;16.20;99.90;;;;;;5047034;28;20029;-76
2022/07/06 04:27:47;;;;;;;7.03;1.95;;;16.20;99.90;;;;;;5061641;28;20478;-75
2022/07/06 04:30:15;;;;;;;8.05;2.40;;;16.20;99.90;;;;;;5049602;28;20025;-75
2022/07/06 04:32:42;;;;;;;5.70;1.05;;;16.20;99.90;;;;;;5054418;28;20431;-75
2022/07/06 04:35:10;;;;;;;7.80;2.03;;;16.20;99.90;;;;;;5044018;28;20021;-75
2022/07/06 04:37:37;;;;;;;6.10;1.10;;;16.30;99.90;;;;;;5036550;28;20116;-75
2022/07/06 04:40:06;;;;;;;7.57;1.10;;;16.20;99.90;;;;;;5042994;28;20040;-76
2022/07/06 04:42:33;;;;;;;3.40;1.17;;;16.20;99.90;;;;;;5038979;28;20075;-74
2022/07/06 04:45:00;;;;;;;4.07;1.00;;;16.20;99.90;;;;;;5046252;28;20032;-75
2022/07/06 04:47:28;;;;;;;3.55;0.60;;;16.10;99.90;;;;;;5036975;28;20131;-73
2022/07/06 04:49:55;;;;;;;2.83;0.90;;;16.10;99.90;;;;;;5047657;28;20048;-77
2022/07/06 04:52:25;;;;;;;5.60;0.73;;;16.00;99.90;;;;;;5041648;28;20038;-72
2022/07/06 04:54:54;;;;;;;4.53;0.70;;;16.00;99.90;;;;;;5044054;28;20022;-76
2022/07/06 04:57:22;;;;;;;3.25;0.70;;;15.90;99.90;;;;;;5037434;28;20032;-77
2022/07/06 04:59:49;;;;;;;7.70;2.53;;;15.90;99.90;;;;;;5033066;28;20486;-75
2022/07/06 05:02:17;;;;;;;5.00;1.77;;;15.80;99.90;;;;;;5056353;28;20111;-75
2022/07/06 05:04:44;;;;;;;3.35;1.30;;;15.80;99.90;;;;;;5054773;28;20470;-77
2022/07/06 05:07:11;;;;;;;7.25;1.55;;;15.80;99.90;;;;;;5032338;28;20029;-72
2022/07/06 05:09:39;;;;;;;14.57;9.13;;;15.80;99.90;;;;;;5031341;28;20064;-78
2022/07/06 05:12:07;;;;;;;16.23;9.55;;;15.80;99.90;;;;;;5046214;28;20075;-73
2022/07/06 05:14:35;;;;;;;8.00;3.13;;;15.70;99.90;;;;;;5032444;28;20449;-72
2022/07/06 05:17:03;;;;;;;22.77;17.65;;;15.70;99.90;;;;;;5029526;28;20066;-72
2022/07/06 05:19:30;;;;;;;8.93;6.53;;;15.70;99.90;;;;;;5033917;28;20087;-79
2022/07/06 05:21:58;;;;;;;11.05;6.55;;;15.70;99.90;;;;;;5032902;28;20072;-75
2022/07/06 05:24:25;;;;;;;12.20;6.47;;;15.70;99.90;;;;;;5029494;28;20037;-74
2022/07/06 05:26:52;;;;;;;9.85;7.25;;;15.70;99.90;;;;;;5030746;28;20025;-76
2022/07/06 05:29:20;;;;;;;13.13;8.07;;;15.70;99.90;;;;;;5030314;28;20101;-75
2022/07/06 05:31:47;;;;;;;10.73;6.00;;;15.70;99.90;;;;;;5047375;28;20516;-76
2022/07/06 05:34:14;;;;;;;6.18;2.88;;;15.70;99.90;;;;;;5048989;28;20040;-74
2022/07/06 05:36:42;;;;;;;6.40;4.97;;;15.70;99.90;;;;;;5048673;28;20044;-76
2022/07/06 05:39:09;;;;;;;12.48;7.15;;;15.70;99.90;;;;;;5049011;28;20074;-75
2022/07/06 05:41:37;;;;;;;14.82;10.57;;;15.60;99.90;;;;;;5041833;28;20028;-75
2022/07/06 05:44:04;;;;;;;8.68;4.72;;;15.60;99.90;;;;;;5046505;28;20521;-74
2022/07/06 05:46:32;;;;;;;6.10;3.83;;;15.60;99.90;;;;;;5045854;28;20494;-77
2022/07/06 05:51:44;;;;;;;2.83;2.20;;;15.60;99.90;;;;;;5048278;28;20090;-76
2022/07/06 05:54:12;;;;;;;5.05;2.67;;;15.60;99.90;;;;;;5048896;28;20638;-75
2022/07/06 05:56:39;;;;;;;11.35;7.50;;;15.50;99.90;;;;;;5050986;28;20111;-71
2022/07/06 05:59:07;;;;;;;6.03;2.97;;;15.50;99.90;;;;;;5050645;28;20094;-74
2022/07/06 06:01:34;;;;;;;3.63;2.53;;;15.50;99.90;;;;;;5043447;28;20017;-75
2022/07/06 06:04:01;;;;;;;2.47;1.45;;;15.40;99.90;;;;;;5058593;28;20033;-74
2022/07/06 06:06:31;;;;;;;3.85;1.15;;;15.40;99.90;;;;;;5038476;28;20029;-76
2022/07/06 06:08:58;;;;;;;1.48;0.90;;;15.30;99.90;;;;;;5046011;28;20021;-76
2022/07/06 06:11:25;;;;;;;3.47;1.13;;;15.30;99.90;;;;;;5042715;28;20067;-74
2022/07/06 06:13:53;;;;;;;5.38;1.20;;;15.30;99.90;;;;;;5034510;28;20029;-76
2022/07/06 06:16:20;;;;;;;3.70;1.05;;;15.20;99.90;;;;;;5053854;28;20075;-75
2022/07/06 06:18:47;;;;;;;4.38;0.57;;;15.20;99.90;;;;;;5055740;28;20017;-75
2022/07/06 06:21:15;;;;;;;1.40;0.47;;;15.20;99.90;;;;;;5057990;28;20036;-75
2022/07/06 06:23:42;;;;;;;4.45;0.40;;;15.20;99.90;;;;;;5050683;28;20344;-76
2022/07/06 06:26:09;;;;;;;1.30;0.20;;;15.10;99.90;;;;;;5041586;28;20029;-74
2022/07/06 06:28:37;;;;;;;4.97;1.33;;;15.10;99.90;;;;;;5048493;28;20052;-71
2022/07/06 06:31:04;;;;;;;1.48;0.50;;;15.10;99.90;;;;;;5046077;28;20478;-72
2022/07/06 06:33:31;;;;;;;1.20;0.40;;;15.10;99.90;;;;;;5059849;28;20071;-75
2022/07/06 06:35:59;;;;;;;3.00;0.82;;;15.00;99.90;;;;;;5054900;28;20025;-75
2022/07/06 06:38:26;;;;;;;4.68;0.68;;;15.00;99.90;;;;;;5038913;28;20067;-76
2022/07/06 06:40:53;;;;;;;3.90;0.70;;;14.90;99.90;;;;;;5047995;28;20078;-74
2022/07/06 06:43:21;;;;;;;4.13;0.43;;;14.90;99.90;;;;;;5049315;28;20485;-73
2022/07/06 06:45:48;;;;;;;3.10;0.95;;;14.90;99.90;;;;;;5053767;28;20082;-73
2022/07/06 06:48:17;;;;;;;4.28;1.13;;;14.80;99.90;;;;;;5053686;28;20052;-75
2022/07/06 06:50:45;;;;;;;5.50;1.00;;;14.80;99.90;;;;;;5042292;28;20398;-75
2022/07/06 06:53:13;;;;;;;2.55;0.60;;;14.80;99.90;;;;;;5046348;28;20083;-72
2022/07/06 06:55:40;;;;;;;7.85;1.10;;;14.80;99.90;;;;;;5051096;28;20120;-73
2022/07/06 06:58:08;;;;;;;5.18;0.82;;;14.70;99.90;;;;;;5059622;28;20033;-73
2022/07/06 07:00:35;;;;;;;5.55;1.63;;;14.70;99.90;;;;;;5045899;28;20067;-73
2022/07/06 07:03:02;;;;;;;2.53;0.75;;;14.70;99.90;;;;;;5031906;28;20048;-74
2022/07/06 07:05:30;;;;;;;5.80;0.70;;;14.70;99.90;;;;;;5039824;28;20021;-77
2022/07/06 07:07:58;;;;;;;2.65;0.60;;;14.60;99.90;;;;;;5052574;28;20090;-76
2022/07/06 07:10:26;;;;;;;3.00;0.90;;;14.70;99.90;;;;;;5049395;28;20071;-75
2022/07/06 07:12:54;;;;;;;4.00;0.40;;;14.60;99.90;;;;;;5040729;28;20049;-71
2022/07/06 07:15:21;;;;;;;3.40;0.50;;;14.60;99.90;;;;;;5047086;28;20071;-76
2022/07/06 07:17:48;;;;;;;1.77;0.52;;;14.60;99.90;;;;;;5056506;28;20036;-73
2022/07/06 07:20:16;;;;;;;7.57;1.35;;;14.60;99.90;;;;;;5045870;28;20029;-76
2022/07/06 07:22:43;;;;;;;2.78;0.68;;;14.60;99.90;;;;;;5040786;28;20045;-75
2022/07/06 07:25:10;;;;;;;5.07;1.00;;;14.50;99.90;;;;;;5037714;28;20037;-75
2022/07/06 07:27:38;;;;;;;7.18;0.85;;;14.60;99.90;;;;;;5044234;28;20131;-76
2022/07/06 07:30:05;;;;;;;2.60;0.40;;;14.50;99.90;;;;;;5049294;28;20107;-79
2022/07/06 07:32:33;;;;;;;1.50;0.40;;;14.50;99.90;;;;;;5041084;28;20049;-75
2022/07/06 07:35:04;;;;;;;2.55;0.30;;;14.50;99.90;;;;;;5032526;28;20981;-77
2022/07/06 07:37:31;;;;;;;2.70;0.30;;;14.50;99.90;;;;;;5039935;28;20037;-76
2022/07/06 07:39:59;;;;;;;5.90;1.83;;;14.50;99.90;;;;;;5052363;28;20087;-76
2022/07/06 07:42:27;;;;;;;1.77;0.52;;;14.40;99.90;;;;;;5048132;28;20079;-77
2022/07/06 07:44:54;;;;;;;6.55;0.57;;;14.40;99.90;;;;;;5033192;28;20549;-76
2022/07/06 07:47:21;;;;;;;4.60;1.58;;;14.40;99.90;;;;;;5048553;28;20024;-77
2022/07/06 07:49:49;;;;;;;0.80;0.50;;;14.50;99.90;;;;;;5036558;28;20107;-77
2022/07/06 07:52:16;;;;;;;3.33;0.50;;;14.50;99.90;;;;;;5038191;28;20069;-76
2022/07/06 07:54:44;;;;;;;1.27;0.35;;;14.50;99.90;;;;;;5031915;28;20033;-76
2022/07/06 07:57:14;;;;;;;2.92;0.45;;;14.40;99.90;;;;;;5063934;28;20070;-77
2022/07/06 07:59:42;;;;;;;1.55;0.30;;;14.50;99.90;;;;;;5038873;28;20464;-74
2022/07/06 08:02:09;;;;;;;6.35;3.60;;;14.50;99.90;;;;;;5040935;28;20041;-75
2022/07/06 08:04:36;;;;;;;11.85;8.90;;;14.50;99.90;;;;;;5045002;28;20024;-76
2022/07/06 08:07:04;;;;;;;6.80;2.55;;;14.40;99.90;;;;;;5038691;28;20416;-76
2022/07/06 08:09:31;;;;;;;5.22;1.42;;;14.40;99.90;;;;;;5044658;28;20023;-75
2022/07/06 08:12:00;;;;;;;9.25;1.48;;;14.40;99.90;;;;;;5045369;28;20099;-74
2022/07/06 08:14:27;;;;;;;4.43;0.90;;;14.40;99.90;;;;;;5045051;28;20029;-75
2022/07/06 08:16:54;;;;;;;2.03;1.15;;;14.40;99.90;;;;;;5041688;28;20036;-75
2022/07/06 08:19:22;;;;;;;8.30;3.22;;;14.40;99.90;;;;;;5056494;28;20567;-77
2022/07/06 08:21:49;;;;;;;18.17;9.55;;;14.40;99.90;;;;;;5044188;28;20029;-74
2022/07/06 08:24:21;;;;;;;6.35;4.63;;;14.40;99.90;;;;;;5054120;28;20028;-76
2022/07/06 08:26:48;;;;;;;9.82;6.68;;;14.40;99.90;;;;;;5046065;28;20051;-76
2022/07/06 08:29:15;;;;;;;11.70;7.93;;;14.40;99.90;;;;;;5045302;28;20471;-76
2022/07/06 08:31:43;;;;;;;9.75;3.88;;;14.40;99.90;;;;;;5042203;28;20063;-75
2022/07/06 08:34:10;;;;;;;9.05;5.70;;;14.40;99.90;;;;;;5040540;28;20036;-75
2022/07/06 08:36:37;;;;;;;13.45;8.27;;;14.40;99.90;;;;;;5043716;28;20394;-78
2022/07/06 08:39:05;;;;;;;7.40;4.18;;;14.40;99.90;;;;;;5048665;28;20048;-78
2022/07/06 08:41:32;;;;;;;3.22;1.15;;;14.40;99.90;;;;;;5036854;28;20025;-76
2022/07/06 08:44:00;;;;;;;6.35;1.95;;;14.40;99.90;;;;;;5040131;28;20029;-76
2022/07/06 08:46:29;;;;;;;2.15;0.55;;;14.40;99.90;;;;;;5041428;28;20478;-77
2022/07/06 08:48:57;;;;;;;3.97;0.95;;;14.30;99.90;;;;;;5047598;28;20545;-72
2022/07/06 08:51:26;;;;;;;8.13;0.40;;;14.30;99.90;;;;;;5036849;28;20069;-76
2022/07/06 08:53:55;;;;;;;3.50;0.55;;;14.30;99.90;;;;;;5029511;28;20045;-77
2022/07/06 08:56:23;;;;;;;4.45;0.88;;;14.30;99.90;;;;;;5038641;28;20499;-77
2022/07/06 08:58:51;;;;;;;1.35;0.30;;;14.40;99.90;;;;;;5044931;28;20058;-73
2022/07/06 09:01:19;;;;;;;2.15;0.93;;;14.30;99.90;;;;;;5045451;28;20483;-76
2022/07/06 09:03:50;;;;;;;5.32;0.57;;;14.40;99.90;;;;;;5046774;28;20033;-75
2022/07/06 09:06:25;;;;;;;5.72;0.50;;;14.30;99.90;;;;;;5041496;28;20355;-75
2022/07/06 09:08:57;;;;;;;6.43;0.60;;;14.40;99.90;;;;;;5047257;28;20064;-75
2022/07/06 09:11:25;;;;;;;2.88;0.40;;;14.40;99.90;;;;;;5045394;28;20380;-75
2022/07/06 09:13:53;;;;;;;3.47;0.60;;;14.30;99.90;;;;;;5048207;28;20430;-77
2022/07/06 09:16:28;;;;;;;7.63;0.75;;;14.40;99.90;;;;;;5044179;28;20029;-76
2022/07/06 09:18:56;;;;;;;5.28;0.50;;;14.40;99.90;;;;;;5039077;28;20029;-77
2022/07/06 09:21:36;;;;;;;2.20;0.50;;;14.30;99.90;;;;;;5050788;28;20044;-76
2022/07/06 09:24:08;;;;;;;1.85;0.77;;;14.40;99.90;;;;;;5042314;28;20531;-78
2022/07/06 09:26:36;;;;;;;1.58;0.30;;;14.30;99.90;;;;;;5040227;28;20026;-77
2022/07/06 09:29:04;;;;;;;4.68;0.52;;;14.30;99.90;;;;;;5046782;28;20068;-78
2022/07/06 09:31:31;;;;;;;0.98;0.45;;;14.30;99.90;;;;;;5039291;28;20087;-76
2022/07/06 09:34:07;;;;;;;5.70;0.40;;;14.30;99.90;;;;;;5047056;28;20029;-77
2022/07/06 09:36:46;;;;;;;3.33;0.40;;;14.30;99.90;;;;;;5050048;28;20064;-74
2022/07/06 09:39:24;;;;;;;2.92;0.70;;;14.30;99.90;;;;;;5046999;28;20029;-75
2022/07/06 09:41:54;;;;;;;3.45;0.40;;;14.30;99.90;;;;;;5035012;28;20037;-76
2022/07/06 09:44:29;;;;;;;3.45;0.75;;;14.20;99.90;;;;;;5046577;28;20025;-79
2022/07/06 09:47:02;;;;;;;1.60;0.40;;;14.20;99.90;;;;;;5037982;28;20029;-75
2022/07/06 09:49:30;;;;;;;1.15;0.30;;;14.20;99.90;;;;;;5050271;28;20040;-76
2022/07/06 09:52:06;;;;;;;1.42;0.45;;;14.20;99.90;;;;;;5042437;28;20049;-75
2022/07/06 09:54:35;;;;;;;4.25;0.70;;;14.20;99.90;;;;;;5049080;28;20498;-75
2022/07/06 09:57:03;;;;;;;1.65;0.30;;;14.10;99.90;;;;;;5045766;28;20506;-76
2022/07/06 09:59:32;;;;;;;2.00;0.70;;;14.10;99.90;;;;;;5040246;28;20063;-75
2022/07/06 10:02:02;;;;;;;2.88;0.50;;;14.10;99.90;;;;;;5041942;28;20026;-76
2022/07/06 10:04:30;;;;;;;2.78;0.57;;;14.10;99.90;;;;;;5049037;28;20027;-75
2022/07/06 10:06:59;;;;;;;3.80;1.15;;;14.10;99.90;;;;;;5035713;28;20029;-77
2022/07/06 10:09:29;;;;;;;3.15;0.85;;;14.10;99.90;;;;;;5049755;28;20098;-77
2022/07/06 10:12:02;;;;;;;0.95;0.45;;;14.00;99.90;;;;;;5050897;28;20048;-76
2022/07/06 10:14:32;;;;;;;3.88;0.75;;;14.10;99.90;;;;;;5050527;28;20099;-76
2022/07/06 10:17:01;;;;;;;7.03;0.40;;;14.10;99.90;;;;;;5049819;28;20489;-75
2022/07/06 10:19:30;;;;;;;1.70;0.35;;;14.10;99.90;;;;;;5045201;28;20116;-75
2022/07/06 10:22:00;;;;;;;1.88;0.45;;;14.00;99.90;;;;;;5037943;28;20101;-76
2022/07/06 10:24:29;;;;;;;3.58;0.65;;;14.00;99.90;;;;;;5043632;28;20087;-74
2022/07/06 10:26:57;;;;;;;3.55;0.40;;;14.00;99.90;;;;;;5049557;28;20033;-75
2022/07/06 10:29:25;;;;;;;1.40;0.57;;;14.00;99.90;;;;;;5051830;28;20033;-77
2022/07/06 10:31:54;;;;;;;1.98;0.80;;;14.00;99.90;;;;;;5035212;28;20041;-77
2022/07/06 10:34:22;;;;;;;9.48;1.10;;;14.00;99.90;;;;;;5048122;28;20098;-75
2022/07/06 10:36:54;;;;;;;1.52;0.60;;;14.00;99.90;;;;;;5040592;28;20103;-76
2022/07/06 10:42:46;;;;;;;3.05;0.40;;;14.00;99.90;;;;;;5040356;28;20107;-73
2022/07/06 10:45:15;;;;;;;3.50;0.47;;;14.10;99.90;;;;;;5044425;28;20029;-77
2022/07/06 10:47:43;;;;;;;1.15;0.30;;;14.00;99.90;;;;;;5043662;28;20497;-76
2022/07/06 10:50:13;;;;;;;4.43;0.52;;;14.00;99.90;;;;;;5040804;28;20020;-77
2022/07/06 10:53:13;;;;;;;1.80;0.30;;;14.00;99.90;;;;;;5033119;28;20045;-75
2022/07/06 10:55:43;;;;;;;1.95;0.40;;;14.00;99.90;;;;;;4995883;28;20044;-77
2022/07/06 10:58:11;;;;;;;0.75;0.30;;;14.00;99.90;;;;;;5047196;28;20418;-75
2022/07/06 11:00:54;;;;;;;2.33;0.30;;;14.00;99.90;;;;;;5049629;28;20070;-74
2022/07/06 11:03:35;;;;;;;5.03;0.50;;;13.90;99.90;;;;;;5056522;28;20025;-76
2022/07/06 11:06:08;;;;;;;2.05;0.50;;;13.90;99.90;;;;;;5033738;28;20087;-76
2022/07/06 11:08:57;;;;;;;1.10;0.50;;;14.00;99.90;;;;;;5040226;28;20043;-76
2022/07/06 11:11:26;;;;;;;2.20;0.50;;;13.90;99.90;;;;;;5037185;28;20039;-76
2022/07/06 11:13:55;;;;;;;4.25;0.70;;;14.00;99.90;;;;;;5037140;28;20029;-75
2022/07/06 11:16:26;;;;;;;4.90;0.70;;;14.00;99.90;;;;;;5047959;28;20033;-77
2022/07/06 11:19:09;;;;;;;3.05;0.80;;;14.00;99.90;;;;;;5046965;28;20518;-76
2022/07/06 11:21:44;;;;;;;4.35;1.33;;;14.00;99.90;;;;;;5041282;28;20028;-76
2022/07/06 11:24:14;;;;;;;6.00;1.00;;;14.10;99.90;;;;;;5044436;28;20108;-76
2022/07/06 11:26:44;;;;;;;3.83;1.92;;;14.10;99.90;;;;;;5037200;28;20525;-77
2022/07/06 11:29:12;;;;;;;4.47;1.65;;;14.10;99.90;;;;;;5046096;28;20052;-76
2022/07/06 11:31:43;;;;;;;4.95;2.10;;;14.10;99.90;;;;;;5034560;28;20042;-77
2022/07/06 11:34:14;;;;;;;8.85;3.50;;;14.10;99.90;;;;;;5046629;28;20573;-76
2022/07/06 11:36:41;;;;;;;8.20;3.92;;;14.10;99.90;;;;;;5046213;28;20513;-73
2022/07/06 11:39:09;;;;;;;6.78;4.03;;;14.10;99.90;;;;;;5045412;28;20029;-76
2022/07/06 11:41:39;;;;;;;5.38;3.03;;;14.10;99.90;;;;;;5038532;28;20036;-75
2022/07/06 11:44:07;;;;;;;6.22;2.97;;;14.10;99.90;;;;;;5048598;28;20033;-74
2022/07/06 11:46:35;;;;;;;9.45;2.45;;;14.10;99.90;;;;;;5034304;28;20502;-76
2022/07/06 11:49:08;;;;;;;5.80;2.40;;;14.10;99.90;;;;;;5038979;28;20072;-72
2022/07/06 11:51:38;;;;;;;5.25;2.53;;;14.10;99.90;;;;;;5035456;28;20499;-74
2022/07/06 11:54:10;;;;;;;3.60;2.10;;;14.20;99.90;;;;;;5045844;28;20115;-73
2022/07/06 11:56:37;;;;;;;5.07;2.20;;;14.20;99.90;;;;;;5055607;28;20497;-76
2022/07/06 11:59:05;;;;;;;6.57;3.65;;;14.20;99.90;;;;;;5049532;28;20025;-73
2022/07/06 12:01:32;;;;;;;15.10;3.42;;;14.20;99.90;;;;;;5045997;28;20045;-76
2022/07/06 12:04:04;;;;;;;8.13;3.90;;;14.30;99.90;;;;;;5035294;28;20112;-76
2022/07/06 12:06:32;;;;;;;11.77;5.00;;;14.30;99.90;;;;;;5030923;28;20387;-75
2022/07/06 12:09:06;;;;;;;6.18;2.75;;;14.20;99.90;;;;;;5044863;28;20574;-76
2022/07/06 12:11:36;;;;;;;3.75;2.65;;;14.20;99.90;;;;;;5041017;28;20037;-73
2022/07/06 12:14:15;;;;;;;4.25;1.67;;;14.20;99.90;;;;;;5040334;28;20494;-77
2022/07/06 12:16:42;;;;;;;5.22;1.23;;;14.30;99.90;;;;;;5039867;28;20086;-76
2022/07/06 12:19:11;;;;;;;4.32;1.10;;;14.20;99.90;;;;;;5048505;28;20078;-75
2022/07/06 12:22:01;;;;;;;2.83;0.60;;;14.20;99.90;;;;;;5044528;28;20052;-73
2022/07/06 12:24:32;;;;;;;0.90;0.40;;;14.10;99.90;;;;;;5045304;28;20031;-76
2022/07/06 12:27:17;;;;;;;6.95;0.98;;;14.10;99.90;;;;;;5033750;28;20077;-75
2022/07/06 12:29:46;;;;;;;2.25;0.60;;;14.10;99.90;;;;;;5036140;28;20025;-77
2022/07/06 12:32:31;;;;;;;2.22;1.33;;;14.00;99.90;;;;;;5048478;28;20445;-73
2022/07/06 12:35:10;;;;;;;1.42;0.47;;;14.00;99.90;;;;;;5049000;28;20100;-75
2022/07/06 12:37:39;;;;;;;2.45;0.50;;;14.00;99.90;;;;;;5031802;28;20059;-74
2022/07/06 12:40:16;;;;;;;0.65;0.30;;;13.90;99.90;;;;;;5045987;28;20032;-75
2022/07/06 12:42:49;;;;;;;5.20;0.70;;;13.90;99.90;;;;;;5047716;28;20033;-76
2022/07/06 12:45:17;;;;;;;1.63;1.20;;;13.90;99.90;;;;;;5034455;28;20021;-76
2022/07/06 12:47:59;;;;;;;4.93;1.65;;;13.90;99.90;;;;;;5033357;28;20078;-74
2022/07/06 12:50:37;;;;;;;5.13;2.15;;;13.90;99.90;;;;;;5048490;28;20033;-76
2022/07/06 12:53:06;;;;;;;4.60;2.60;;;13.90;99.90;;;;;;5048932;28;20053;-76
2022/07/06 12:55:34;;;;;;;4.00;2.45;;;13.90;99.90;;;;;;5036723;28;20029;-77
2022/07/06 12:58:01;;;;;;;5.55;3.03;;;13.90;99.90;;;;;;5034706;28;20026;-77
2022/07/06 13:00:28;;;;;;;1.77;1.60;;;13.90;99.90;;;;;;5035774;28;20025;-80